Terminal Aerodrome Forecast
Issued by NWS

Home | Current Version | Previous Version | Text Only | Print | Product List | Glossary On
Versions: 1 2 3 4 5 6 7 8 9 10 11 12 13 14 15 16
000
FTUS42 KTAE 262320
TAFVLD
TAF
KVLD 262320Z 2700/2724 VRB03KT P6SM SCT040 BKN250
     FM271100 00000KT 1SM BR BKN003
     FM271400 VRB03KT P6SM SCT020=

USA.gov is the U.S. government's official web portal to all federal, state and local government web resources and services.